createdAt,value
2022-10-02T00:02:15.233Z,17.88
2022-10-02T00:04:54.287Z,15.65
2022-10-02T00:07:30.845Z,21.55
2022-10-02T00:10:01.902Z,21.98
2022-10-02T00:12:30.642Z,17.05
2022-10-02T00:15:06.589Z,21.23
2022-10-02T00:17:39.282Z,21.67
2022-10-02T00:20:14.004Z,21.52
2022-10-02T00:25:36.977Z,22.02
2022-10-02T00:28:16.077Z,20.00
2022-10-02T00:30:51.337Z,26.33
2022-10-02T00:33:36.969Z,16.92
2022-10-02T00:36:37.512Z,19.02
2022-10-02T00:39:19.992Z,24.65
2022-10-02T00:41:52.862Z,14.05
2022-10-02T00:44:37.798Z,22.17
2022-10-02T00:47:21.468Z,17.42
2022-10-02T00:49:48.722Z,20.67
2022-10-02T00:52:34.574Z,21.40
2022-10-02T00:55:22.207Z,23.38
2022-10-02T00:58:19.656Z,27.80
2022-10-02T01:01:14.627Z,23.35
2022-10-02T01:03:46.180Z,17.42
2022-10-02T01:06:13.510Z,20.30
2022-10-02T01:08:41.073Z,23.13
2022-10-02T01:11:08.815Z,28.27
2022-10-02T01:13:36.275Z,22.33
2022-10-02T01:16:04.075Z,25.52
2022-10-02T01:18:31.849Z,16.70
2022-10-02T01:21:03.996Z,16.88
2022-10-02T01:23:46.057Z,26.10
2022-10-02T01:26:13.716Z,32.58
2022-10-02T01:28:41.187Z,20.25
2022-10-02T01:31:11.060Z,20.13
2022-10-02T01:33:41.558Z,17.52
2022-10-02T01:36:10.628Z,27.95
2022-10-02T01:38:39.678Z,21.73
2022-10-02T01:41:09.932Z,25.65
2022-10-02T01:43:45.561Z,22.77
2022-10-02T01:46:49.185Z,20.92
2022-10-02T01:50:00.608Z,21.63
2022-10-02T01:52:35.183Z,22.85
2022-10-02T01:55:41.005Z,27.75
2022-10-02T02:01:19.781Z,27.27
2022-10-02T02:03:56.392Z,18.65
2022-10-02T02:06:55.829Z,19.98
2022-10-02T02:09:49.260Z,26.00
2022-10-02T02:12:24.754Z,26.40
2022-10-02T02:15:02.124Z,25.33
2022-10-02T02:17:57.494Z,28.23
2022-10-02T02:20:33.125Z,25.98
2022-10-02T02:23:07.142Z,20.23
2022-10-02T02:25:39.775Z,23.35
2022-10-02T02:28:12.329Z,21.05
2022-10-02T02:30:43.667Z,19.67
2022-10-02T02:33:20.037Z,23.17
2022-10-02T02:35:51.644Z,22.77
2022-10-02T02:38:31.093Z,20.00
2022-10-02T02:41:04.322Z,21.15
2022-10-02T02:43:47.851Z,22.13
2022-10-02T02:47:06.360Z,27.05
2022-10-02T02:49:47.926Z,22.55
2022-10-02T02:52:25.376Z,26.45
2022-10-02T02:55:00.700Z,27.60
2022-10-02T02:57:38.083Z,24.45
2022-10-02T03:00:07.169Z,25.70
2022-10-02T03:02:34.493Z,20.85
2022-10-02T03:05:01.923Z,27.50
2022-10-02T03:07:29.256Z,25.02
2022-10-02T03:10:14.311Z,20.63
2022-10-02T03:13:03.429Z,23.88
2022-10-02T03:15:53.214Z,29.83
2022-10-02T03:18:37.052Z,24.48
2022-10-02T03:21:10.274Z,29.42
2022-10-02T03:24:10.440Z,26.05
2022-10-02T03:26:47.028Z,27.52
2022-10-02T03:29:25.323Z,23.85
2022-10-02T03:31:54.142Z,17.13
2022-10-02T03:34:22.558Z,21.23
2022-10-02T03:36:50.280Z,22.52
2022-10-02T03:39:25.060Z,26.75
2022-10-02T03:41:54.092Z,20.38
2022-10-02T03:44:21.462Z,23.05
2022-10-02T03:46:48.865Z,24.17
2022-10-02T03:49:16.145Z,25.08
2022-10-02T03:51:43.396Z,18.65
2022-10-02T03:54:17.956Z,17.42
2022-10-02T03:56:58.235Z,16.88
2022-10-02T03:59:52.656Z,16.52
2022-10-02T04:02:56.875Z,13.90
2022-10-02T04:05:49.982Z,14.45
2022-10-02T04:08:20.673Z,20.98
2022-10-02T04:11:00.265Z,10.85
2022-10-02T04:13:34.108Z,10.30
2022-10-02T04:16:18.780Z,11.57
2022-10-02T04:18:59.373Z,12.45
2022-10-02T04:21:32.012Z,17.27
2022-10-02T04:24:08.099Z,17.05
2022-10-02T04:26:39.329Z,13.70
2022-10-02T04:29:22.189Z,15.60
2022-10-02T04:32:01.957Z,14.27
2022-10-02T04:34:29.183Z,12.23
2022-10-02T04:37:24.683Z,12.80
2022-10-02T04:43:08.771Z,8.65
2022-10-02T04:46:27.173Z,9.18
2022-10-02T04:49:02.872Z,7.35
2022-10-02T04:51:56.531Z,9.55
2022-10-02T04:54:42.360Z,7.07
2022-10-02T04:57:32.036Z,8.30
2022-10-02T05:00:09.060Z,6.50
2022-10-02T05:02:56.433Z,4.18
2022-10-02T05:05:41.335Z,7.05
2022-10-02T05:08:20.727Z,4.43
2022-10-02T05:11:13.175Z,7.43
2022-10-02T05:14:02.232Z,11.27
2022-10-02T05:16:44.028Z,7.00
2022-10-02T05:19:44.344Z,9.20
2022-10-02T05:22:45.120Z,6.40
2022-10-02T05:25:23.460Z,10.85
2022-10-02T05:28:23.018Z,10.85
2022-10-02T05:31:05.597Z,10.32
2022-10-02T05:33:51.608Z,10.02
2022-10-02T05:36:27.572Z,9.85
2022-10-02T05:39:02.575Z,13.38
2022-10-02T05:41:40.791Z,11.57
2022-10-02T05:44:16.984Z,13.02
2022-10-02T05:46:51.086Z,15.98
2022-10-02T05:49:41.492Z,16.63
2022-10-02T05:52:23.504Z,14.35
2022-10-02T05:54:55.871Z,20.20
2022-10-02T05:57:42.327Z,17.40
2022-10-02T06:00:34.208Z,21.42
2022-10-02T06:03:16.239Z,20.35
2022-10-02T06:05:55.402Z,24.23
2022-10-02T06:08:32.005Z,17.63
2022-10-02T06:11:08.549Z,27.23
2022-10-02T06:13:53.765Z,20.70
2022-10-02T06:19:04.360Z,20.52
2022-10-02T06:21:35.935Z,25.77
2022-10-02T06:24:12.599Z,22.23
2022-10-02T06:26:49.356Z,17.35
2022-10-02T06:29:37.018Z,12.93
2022-10-02T06:32:22.385Z,23.20
2022-10-02T06:34:50.570Z,18.42
2022-10-02T06:37:28.242Z,21.08
2022-10-02T06:39:55.428Z,16.52
2022-10-02T06:42:42.352Z,20.33
2022-10-02T06:45:21.871Z,24.58
2022-10-02T06:48:14.848Z,20.60
2022-10-02T06:50:49.802Z,20.17
2022-10-02T06:53:23.039Z,15.95
2022-10-02T06:56:15.283Z,17.05
2022-10-02T06:59:04.604Z,16.95
2022-10-02T07:01:31.874Z,19.65
2022-10-02T07:04:17.771Z,14.55
2022-10-02T07:07:14.925Z,10.02
2022-10-02T07:09:57.609Z,13.60
2022-10-02T07:12:30.635Z,15.05
2022-10-02T07:15:19.618Z,15.05
2022-10-02T07:18:32.173Z,13.82
2022-10-02T07:21:04.929Z,19.92
2022-10-02T07:23:48.506Z,18.38
2022-10-02T07:26:38.434Z,15.18
2022-10-02T07:29:17.809Z,15.98
2022-10-02T07:32:25.509Z,16.55
2022-10-02T07:35:20.154Z,16.13
2022-10-02T07:38:09.331Z,20.37
2022-10-02T07:40:46.648Z,18.05
2022-10-02T07:43:34.961Z,13.52
2022-10-02T07:46:17.333Z,11.88
2022-10-02T07:49:06.053Z,17.90
2022-10-02T07:51:53.697Z,16.83
2022-10-02T07:54:40.038Z,13.43
2022-10-02T07:57:42.345Z,15.98
2022-10-02T08:00:16.133Z,15.55
2022-10-02T08:02:59.322Z,12.87
2022-10-02T08:05:34.702Z,12.05
2022-10-02T08:08:20.063Z,11.40
2022-10-02T08:10:51.960Z,12.63
2022-10-02T08:13:34.805Z,15.52
2022-10-02T08:16:05.185Z,15.30
2022-10-02T08:19:08.639Z,9.88
2022-10-02T08:21:41.141Z,12.35
2022-10-02T08:24:15.758Z,17.50
2022-10-02T08:26:48.918Z,14.75
2022-10-02T08:29:25.819Z,10.38
2022-10-02T08:31:53.494Z,10.45
2022-10-02T08:34:23.537Z,10.02
2022-10-02T08:37:08.345Z,9.23
2022-10-02T08:39:50.581Z,10.77
2022-10-02T08:42:48.038Z,9.23
2022-10-02T08:45:42.445Z,11.60
2022-10-02T08:48:54.737Z,11.18
2022-10-02T08:51:50.213Z,7.82
2022-10-02T08:54:41.953Z,5.80
2022-10-02T08:57:27.873Z,6.95
2022-10-02T09:00:37.299Z,6.00
2022-10-02T09:03:19.635Z,13.88
2022-10-02T09:05:59.194Z,6.45
2022-10-02T09:08:51.637Z,8.68
2022-10-02T09:11:40.813Z,6.45
2022-10-02T09:14:33.738Z,8.45
2022-10-02T09:17:22.704Z,7.03
2022-10-02T09:20:05.428Z,7.47
2022-10-02T09:23:03.495Z,9.45
2022-10-02T09:25:56.128Z,6.72
2022-10-02T09:28:46.660Z,11.13
2022-10-02T09:31:35.243Z,9.40
2022-10-02T09:34:33.147Z,8.55
2022-10-02T09:37:28.283Z,8.52
2022-10-02T09:40:20.128Z,7.18
2022-10-02T09:43:09.816Z,6.82
2022-10-02T09:45:54.430Z,8.77
2022-10-02T09:48:45.220Z,7.47
2022-10-02T09:51:29.642Z,8.40
2022-10-02T09:54:44.685Z,6.93
2022-10-02T09:57:54.476Z,6.05
2022-10-02T10:01:00.590Z,8.73
2022-10-02T10:03:52.059Z,7.38
2022-10-02T10:06:39.517Z,5.68
2022-10-02T10:09:22.071Z,9.60
2022-10-02T10:12:13.973Z,5.35
2022-10-02T10:14:41.195Z,7.88
2022-10-02T10:17:46.025Z,6.32
2022-10-02T10:20:40.799Z,5.97
2022-10-02T10:23:31.693Z,9.25
2022-10-02T10:26:20.884Z,9.07
2022-10-02T10:29:22.140Z,8.38
2022-10-02T10:32:26.254Z,6.82
2022-10-02T10:35:05.251Z,7.32
2022-10-02T10:38:11.353Z,8.27
2022-10-02T10:40:44.394Z,8.98
2022-10-02T10:43:33.578Z,7.25
2022-10-02T10:46:26.848Z,9.20
2022-10-02T10:48:59.861Z,9.27
2022-10-02T10:51:32.394Z,6.40
2022-10-02T10:54:08.598Z,10.45
2022-10-02T10:56:38.917Z,7.35
2022-10-02T10:59:27.241Z,12.02
2022-10-02T11:02:03.643Z,9.90
2022-10-02T11:04:55.412Z,11.05
2022-10-02T11:08:02.222Z,6.55
2022-10-02T11:10:51.310Z,7.65
2022-10-02T11:13:33.766Z,8.35
2022-10-02T11:16:21.994Z,8.73
2022-10-02T11:19:10.405Z,8.02
2022-10-02T11:22:07.100Z,4.65
2022-10-02T11:25:12.830Z,6.18
2022-10-02T11:28:22.055Z,6.22
2022-10-02T11:31:17.314Z,9.18
2022-10-02T11:34:20.377Z,9.52
2022-10-02T11:37:09.591Z,9.52
2022-10-02T11:39:48.926Z,6.82
2022-10-02T11:42:46.112Z,10.05
2022-10-02T11:45:43.626Z,8.70
2022-10-02T11:48:49.447Z,7.32
2022-10-02T11:54:45.538Z,13.48
2022-10-02T11:57:19.440Z,8.70
2022-10-02T12:00:31.649Z,8.45
2022-10-02T12:03:06.702Z,7.32
2022-10-02T12:06:06.489Z,9.32
2022-10-02T12:08:34.383Z,11.63
2022-10-02T12:11:15.278Z,8.65
2022-10-02T12:14:33.269Z,7.07
2022-10-02T12:17:37.577Z,7.30
2022-10-02T12:20:35.789Z,9.63
2022-10-02T12:23:44.669Z,11.23
2022-10-02T12:26:33.173Z,8.27
2022-10-02T12:29:26.290Z,6.90
2022-10-02T12:31:59.474Z,7.72
2022-10-02T12:34:45.179Z,6.53
2022-10-02T12:37:42.696Z,7.35
2022-10-02T12:40:33.343Z,9.25
2022-10-02T12:43:38.305Z,6.95
2022-10-02T12:46:30.435Z,7.72
2022-10-02T12:49:23.639Z,6.05
2022-10-02T12:52:20.923Z,5.47
2022-10-02T12:54:51.411Z,9.93
2022-10-02T12:57:46.611Z,8.02
2022-10-02T13:00:18.557Z,9.88
2022-10-02T13:03:13.387Z,9.43
2022-10-02T13:06:03.429Z,5.43
2022-10-02T13:08:41.367Z,10.55
2022-10-02T13:11:33.689Z,5.07
2022-10-02T13:14:17.933Z,13.20
2022-10-02T13:16:46.444Z,9.90
2022-10-02T13:19:35.644Z,6.07
2022-10-02T13:22:31.354Z,7.93
2022-10-02T13:25:19.906Z,8.40
2022-10-02T13:28:24.918Z,7.65
2022-10-02T13:31:13.519Z,9.32
2022-10-02T13:33:55.421Z,7.47
2022-10-02T13:36:44.140Z,7.03
2022-10-02T13:39:35.433Z,8.48
2022-10-02T13:42:18.047Z,7.22
2022-10-02T13:45:00.822Z,8.30
2022-10-02T13:47:43.999Z,6.95
2022-10-02T13:50:46.721Z,11.00
2022-10-02T13:53:35.616Z,15.40
2022-10-02T13:56:13.269Z,10.98
2022-10-02T13:59:05.648Z,9.18
2022-10-02T14:02:14.562Z,8.95
2022-10-02T14:04:57.090Z,6.95
2022-10-02T14:07:46.014Z,8.30
2022-10-02T14:10:35.828Z,11.15
2022-10-02T14:13:21.572Z,9.00
2022-10-02T14:16:25.523Z,6.43
2022-10-02T14:19:14.455Z,7.78
2022-10-02T14:21:57.616Z,10.93
2022-10-02T14:25:01.099Z,7.22
2022-10-02T14:28:03.596Z,10.57
2022-10-02T14:30:45.905Z,10.45
2022-10-02T14:33:16.734Z,7.57
2022-10-02T14:35:59.484Z,8.30
2022-10-02T14:38:50.108Z,9.70
2022-10-02T14:41:51.634Z,8.73
2022-10-02T14:44:28.534Z,7.30
2022-10-02T14:47:05.099Z,7.80
2022-10-02T14:49:58.761Z,8.40
2022-10-02T14:52:30.397Z,11.95
2022-10-02T14:55:24.879Z,8.43
2022-10-02T14:57:58.353Z,8.77
2022-10-02T15:00:29.187Z,7.88
2022-10-02T15:03:14.449Z,11.48
2022-10-02T15:06:07.121Z,8.77
2022-10-02T15:08:42.821Z,10.18
2022-10-02T15:11:25.410Z,10.27
2022-10-02T15:14:02.983Z,7.80
2022-10-02T15:16:59.711Z,9.57
2022-10-02T15:19:54.405Z,10.27
2022-10-02T15:22:46.616Z,5.80
2022-10-02T15:25:43.236Z,11.40
2022-10-02T15:28:38.257Z,8.20
2022-10-02T15:31:59.286Z,9.90
2022-10-02T15:34:52.036Z,7.65
2022-10-02T15:37:45.698Z,9.57
2022-10-02T15:40:55.186Z,10.63
2022-10-02T15:43:47.232Z,10.15
2022-10-02T15:46:41.814Z,8.00
2022-10-02T15:49:12.077Z,8.43
2022-10-02T15:51:50.898Z,9.98
2022-10-02T15:55:19.491Z,10.38
2022-10-02T15:58:10.975Z,7.78
2022-10-02T16:01:03.632Z,8.82
2022-10-02T16:03:43.092Z,7.07
2022-10-02T16:06:43.150Z,8.73
2022-10-02T16:09:43.779Z,5.38
2022-10-02T16:12:41.756Z,4.70
2022-10-02T16:15:18.444Z,6.10
2022-10-02T16:18:23.772Z,6.05
2022-10-02T16:21:12.745Z,6.85
2022-10-02T16:24:02.185Z,8.27
2022-10-02T16:27:07.309Z,6.75
2022-10-02T16:29:47.659Z,10.15
2022-10-02T16:32:24.123Z,10.43
2022-10-02T16:35:13.076Z,7.13
2022-10-02T16:37:59.597Z,7.82
2022-10-02T16:40:40.408Z,8.32
2022-10-02T16:43:49.926Z,11.80
2022-10-02T16:46:44.852Z,7.55
2022-10-02T16:49:34.000Z,8.70
2022-10-02T16:52:35.209Z,7.53
2022-10-02T16:55:35.625Z,4.47
2022-10-02T16:58:18.309Z,6.40
2022-10-02T17:00:54.194Z,5.38
2022-10-02T17:03:36.673Z,4.75
2022-10-02T17:06:19.904Z,7.43
2022-10-02T17:08:58.349Z,5.18
2022-10-02T17:11:35.520Z,6.28
2022-10-02T17:14:10.028Z,5.72
2022-10-02T17:16:42.148Z,4.85
2022-10-02T17:19:45.684Z,10.65
2022-10-02T17:22:28.707Z,5.95
2022-10-02T17:25:29.757Z,8.98
2022-10-02T17:28:36.947Z,7.05
2022-10-02T17:31:05.943Z,10.00
2022-10-02T17:33:52.251Z,4.63
2022-10-02T17:36:36.210Z,4.90
2022-10-02T17:39:25.914Z,5.93
2022-10-02T17:42:22.730Z,8.55
2022-10-02T17:45:11.610Z,9.88
2022-10-02T17:47:53.689Z,7.88
2022-10-02T17:50:33.000Z,6.85
2022-10-02T17:53:25.354Z,9.95
2022-10-02T17:56:29.349Z,7.60
2022-10-02T17:59:27.613Z,10.75
2022-10-02T18:02:32.320Z,8.10
2022-10-02T18:05:26.689Z,7.85
2022-10-02T18:08:15.751Z,6.75
2022-10-02T18:11:09.744Z,9.77
2022-10-02T18:13:46.171Z,9.50
2022-10-02T18:16:58.870Z,9.45
2022-10-02T18:19:48.710Z,10.40
2022-10-02T18:22:24.925Z,6.85
2022-10-02T18:25:23.755Z,5.85
2022-10-02T18:28:10.028Z,12.05
2022-10-02T18:31:03.974Z,6.93
2022-10-02T18:33:53.706Z,13.98
2022-10-02T18:37:00.403Z,11.63
2022-10-02T18:39:41.897Z,7.93
2022-10-02T18:42:40.864Z,8.13
2022-10-02T18:45:27.216Z,7.65
2022-10-02T18:48:16.203Z,7.30
2022-10-02T18:51:00.611Z,9.02
2022-10-02T18:53:52.409Z,6.82
2022-10-02T18:56:45.511Z,9.55
2022-10-02T18:59:46.274Z,14.25
2022-10-02T19:02:46.749Z,10.25
2022-10-02T19:05:23.265Z,11.80
2022-10-02T19:08:02.549Z,11.25
2022-10-02T19:10:32.965Z,9.68
2022-10-02T19:13:18.076Z,8.23
2022-10-02T19:15:47.780Z,6.88
2022-10-02T19:18:23.997Z,15.52
2022-10-02T19:21:08.318Z,7.68
2022-10-02T19:23:44.913Z,8.13
2022-10-02T19:26:21.102Z,8.23
2022-10-02T19:28:55.130Z,8.50
2022-10-02T19:31:26.896Z,10.48
2022-10-02T19:33:57.602Z,13.00
2022-10-02T19:36:29.123Z,6.65
2022-10-02T19:39:03.129Z,10.38
2022-10-02T19:41:35.777Z,11.15
2022-10-02T19:44:13.974Z,12.45
2022-10-02T19:46:44.394Z,8.63
2022-10-02T19:49:24.672Z,5.28
2022-10-02T19:51:53.022Z,10.85
2022-10-02T19:54:49.973Z,8.85
2022-10-02T19:57:24.124Z,10.90
2022-10-02T19:59:53.839Z,9.38
2022-10-02T20:02:36.473Z,12.40
2022-10-02T20:05:07.161Z,10.88
2022-10-02T20:07:38.025Z,9.07
2022-10-02T20:10:16.198Z,14.02
2022-10-02T20:12:54.305Z,15.02
2022-10-02T20:15:43.886Z,11.65
2022-10-02T20:18:13.791Z,11.57
2022-10-02T20:20:42.854Z,14.43
2022-10-02T20:23:17.335Z,10.63
2022-10-02T20:25:50.548Z,7.07
2022-10-02T20:28:31.109Z,8.13
2022-10-02T20:31:06.044Z,13.27
2022-10-02T20:33:46.472Z,13.40
2022-10-02T20:36:19.330Z,13.15
2022-10-02T20:39:18.938Z,10.50
2022-10-02T20:42:13.454Z,9.02
2022-10-02T20:44:41.509Z,10.40
2022-10-02T20:47:30.476Z,11.85
2022-10-02T20:50:33.165Z,14.13
2022-10-02T20:53:41.324Z,12.10
2022-10-02T20:56:41.234Z,12.35
2022-10-02T20:59:14.146Z,11.60
2022-10-02T21:01:44.552Z,12.77
2022-10-02T21:04:34.726Z,12.27
2022-10-02T21:07:05.872Z,11.48
2022-10-02T21:09:58.250Z,9.65
2022-10-02T21:12:43.878Z,10.77
2022-10-02T21:15:46.195Z,8.88
2022-10-02T21:18:30.538Z,9.50
2022-10-02T21:21:36.049Z,13.93
2022-10-02T21:24:09.361Z,17.30
2022-10-02T21:26:57.419Z,15.15
2022-10-02T21:30:16.262Z,16.13
2022-10-02T21:33:14.060Z,13.10
2022-10-02T21:35:41.834Z,13.00
2022-10-02T21:38:31.033Z,11.02
2022-10-02T21:41:27.237Z,14.50
2022-10-02T21:43:57.360Z,16.35
2022-10-02T21:46:48.910Z,15.30
2022-10-02T21:49:34.859Z,11.10
2022-10-02T21:52:40.108Z,11.15
2022-10-02T21:55:33.260Z,17.83
2022-10-02T21:58:09.693Z,12.18
2022-10-02T22:01:01.741Z,11.80
2022-10-02T22:03:54.936Z,13.60
2022-10-02T22:06:50.054Z,16.23
2022-10-02T22:09:56.913Z,12.85
2022-10-02T22:12:30.027Z,17.15
2022-10-02T22:15:26.410Z,12.07
2022-10-02T22:17:56.916Z,12.88
2022-10-02T22:20:48.913Z,18.13
2022-10-02T22:23:33.132Z,19.33
2022-10-02T22:26:22.373Z,13.10
2022-10-02T22:29:00.544Z,17.70
2022-10-02T22:31:40.056Z,10.18
2022-10-02T22:34:30.464Z,14.90
2022-10-02T22:37:25.478Z,15.80
2022-10-02T22:40:04.210Z,19.33
2022-10-02T22:42:42.483Z,11.30
2022-10-02T22:45:21.901Z,15.27
2022-10-02T22:48:01.033Z,14.07
2022-10-02T22:50:49.600Z,17.65
2022-10-02T22:53:33.026Z,14.65
2022-10-02T22:56:00.453Z,13.50
2022-10-02T22:58:37.121Z,15.10
2022-10-02T23:01:30.859Z,17.25
2022-10-02T23:04:19.194Z,10.05
2022-10-02T23:06:48.809Z,12.52
2022-10-02T23:09:41.220Z,11.75
2022-10-02T23:12:28.339Z,17.02
2022-10-02T23:15:26.137Z,14.60
2022-10-02T23:17:59.209Z,16.25
2022-10-02T23:20:43.206Z,12.25
2022-10-02T23:23:28.400Z,15.00
2022-10-02T23:25:59.725Z,20.05
2022-10-02T23:28:48.277Z,15.95
2022-10-02T23:31:22.830Z,13.18
2022-10-02T23:34:17.273Z,12.48
2022-10-02T23:36:55.890Z,17.92
2022-10-02T23:39:39.673Z,20.52
2022-10-02T23:42:14.120Z,14.57
2022-10-02T23:44:57.071Z,15.85
2022-10-02T23:47:34.310Z,19.75
2022-10-02T23:50:02.398Z,10.27
2022-10-02T23:52:48.331Z,16.55
2022-10-02T23:55:54.808Z,13.20
2022-10-02T23:58:31.132Z,13.52
